Terminal Aerodrome Forecast
Issued by NWS

Home | Current Version | Previous Version | Text Only | Print | Product List | Glossary On
Versions: 1 2 3 4 5 6 7 8 9 10 11 12 13 14 15 16 17 18 19 20
000
FTUS43 KDTX 050346 AAB
TAFMBS
TAF AMD
KMBS 050346Z 0504/0524 31010KT P6SM SCT050 BKN200
     FM050600 32005KT P6SM SCT035 BKN200
     FM051600 30008KT P6SM SCT030 BKN200=

USA.gov is the U.S. government's official web portal to all federal, state and local government web resources and services.